Abbott, Texas
Current Conditions -  °F | °C
As of 10:35 PM on Sunday 21 Dec 2014 (Local Time) from KINJ Reporting Station
Overcast Overcast  
Wind Chill: 12°   Ceiling: 1400
Heat Index: 12°   Visibility: 10mi
Dew Point: 10°   Wind: 15mph
Humidity: 85%   Direction: 170°S
Pressure: 29.79"   Gusts: 21mph
Location:  31.88°N, 97.07°W
Report Text: KINJ 220435Z AUTO 17013G18KT 10SM BKN014 OVC021 12/10 A2979 RMK AO2 T01200095
Loading
Personal Weather Stations






























Interactive Weather Map New forecast layout! Learn more

10-Day Weather Forecast

Advertisements
Track Severe Weather on mobile